sensor_id;sensor_type;location;lat;lon;timestamp;temperature;humidity
4530;DHT22;2277;51.626;7.516;2023-02-01T00:00:19;6.90;99.90
4530;DHT22;2277;51.626;7.516;2023-02-01T00:02:44;6.80;99.90
4530;DHT22;2277;51.626;7.516;2023-02-01T00:05:10;6.90;99.90
4530;DHT22;2277;51.626;7.516;2023-02-01T00:07:37;6.90;99.90
4530;DHT22;2277;51.626;7.516;2023-02-01T00:10:04;6.90;99.90
4530;DHT22;2277;51.626;7.516;2023-02-01T00:12:31;6.90;99.90
4530;DHT22;2277;51.626;7.516;2023-02-01T00:14:56;6.80;99.90
4530;DHT22;2277;51.626;7.516;2023-02-01T00:17:22;6.90;99.90
4530;DHT22;2277;51.626;7.516;2023-02-01T00:19:48;6.90;99.90
4530;DHT22;2277;51.626;7.516;2023-02-01T00:22:13;6.90;99.90
4530;DHT22;2277;51.626;7.516;2023-02-01T00:24:39;7.00;99.90
4530;DHT22;2277;51.626;7.516;2023-02-01T00:27:04;7.00;99.90
4530;DHT22;2277;51.626;7.516;2023-02-01T00:29:30;7.00;99.90
4530;DHT22;2277;51.626;7.516;2023-02-01T00:31:56;7.00;99.90
4530;DHT22;2277;51.626;7.516;2023-02-01T00:34:21;7.10;99.90
4530;DHT22;2277;51.626;7.516;2023-02-01T00:36:47;7.00;99.90
4530;DHT22;2277;51.626;7.516;2023-02-01T00:39:13;7.00;99.90
4530;DHT22;2277;51.626;7.516;2023-02-01T00:41:39;7.00;99.90
4530;DHT22;2277;51.626;7.516;2023-02-01T00:44:06;7.10;99.90
4530;DHT22;2277;51.626;7.516;2023-02-01T00:46:32;7.10;99.90
4530;DHT22;2277;51.626;7.516;2023-02-01T00:48:57;7.10;99.90
4530;DHT22;2277;51.626;7.516;2023-02-01T00:51:26;7.10;99.90
4530;DHT22;2277;51.626;7.516;2023-02-01T00:53:52;7.10;99.90
4530;DHT22;2277;51.626;7.516;2023-02-01T00:56:18;7.00;99.90
4530;DHT22;2277;51.626;7.516;2023-02-01T00:58:44;7.00;99.90
4530;DHT22;2277;51.626;7.516;2023-02-01T01:01:16;7.10;99.90
4530;DHT22;2277;51.626;7.516;2023-02-01T01:03:44;7.10;99.90
4530;DHT22;2277;51.626;7.516;2023-02-01T01:06:15;7.10;99.90
4530;DHT22;2277;51.626;7.516;2023-02-01T01:08:41;7.10;99.90
4530;DHT22;2277;51.626;7.516;2023-02-01T01:11:13;7.10;99.90
4530;DHT22;2277;51.626;7.516;2023-02-01T01:13:39;7.10;99.90
4530;DHT22;2277;51.626;7.516;2023-02-01T01:16:07;7.10;99.90
4530;DHT22;2277;51.626;7.516;2023-02-01T01:18:33;7.10;99.90
4530;DHT22;2277;51.626;7.516;2023-02-01T01:21:00;7.10;99.90
4530;DHT22;2277;51.626;7.516;2023-02-01T01:23:26;7.20;99.90
4530;DHT22;2277;51.626;7.516;2023-02-01T01:25:52;7.20;99.90
4530;DHT22;2277;51.626;7.516;2023-02-01T01:28:18;7.20;99.90
4530;DHT22;2277;51.626;7.516;2023-02-01T01:30:43;7.10;99.90
4530;DHT22;2277;51.626;7.516;2023-02-01T01:33:09;7.20;99.90
4530;DHT22;2277;51.626;7.516;2023-02-01T01:35:35;7.20;99.90
4530;DHT22;2277;51.626;7.516;2023-02-01T01:38:01;7.20;99.90
4530;DHT22;2277;51.626;7.516;2023-02-01T01:40:28;7.10;99.90
4530;DHT22;2277;51.626;7.516;2023-02-01T01:42:55;7.20;99.90
4530;DHT22;2277;51.626;7.516;2023-02-01T01:45:28;7.20;99.90
4530;DHT22;2277;51.626;7.516;2023-02-01T01:48:06;7.20;99.90
4530;DHT22;2277;51.626;7.516;2023-02-01T01:50:36;7.20;99.90
4530;DHT22;2277;51.626;7.516;2023-02-01T01:53:04;7.20;99.90
4530;DHT22;2277;51.626;7.516;2023-02-01T01:55:32;7.20;99.90
4530;DHT22;2277;51.626;7.516;2023-02-01T01:58:03;7.20;99.90
4530;DHT22;2277;51.626;7.516;2023-02-01T02:00:31;7.20;99.90
4530;DHT22;2277;51.626;7.516;2023-02-01T02:03:02;7.20;99.90
4530;DHT22;2277;51.626;7.516;2023-02-01T02:05:29;7.20;99.90
4530;DHT22;2277;51.626;7.516;2023-02-01T02:07:57;7.20;99.90
4530;DHT22;2277;51.626;7.516;2023-02-01T02:10:23;7.20;99.90
4530;DHT22;2277;51.626;7.516;2023-02-01T02:13:10;7.20;99.90
4530;DHT22;2277;51.626;7.516;2023-02-01T02:15:38;7.20;99.90
4530;DHT22;2277;51.626;7.516;2023-02-01T02:18:17;7.20;99.90
4530;DHT22;2277;51.626;7.516;2023-02-01T02:23:56;7.30;99.90
4530;DHT22;2277;51.626;7.516;2023-02-01T02:32:04;7.20;99.90
4530;DHT22;2277;51.626;7.516;2023-02-01T02:34:47;7.30;99.90
4530;DHT22;2277;51.626;7.516;2023-02-01T02:37:23;7.30;99.90
4530;DHT22;2277;51.626;7.516;2023-02-01T02:40:26;7.30;99.90
4530;DHT22;2277;51.626;7.516;2023-02-01T02:49:15;7.20;99.90
4530;DHT22;2277;51.626;7.516;2023-02-01T02:51:52;7.30;99.90
4530;DHT22;2277;51.626;7.516;2023-02-01T02:54:43;7.30;99.90
4530;DHT22;2277;51.626;7.516;2023-02-01T02:57:21;7.30;99.90
4530;DHT22;2277;51.626;7.516;2023-02-01T03:00:09;7.20;99.90
4530;DHT22;2277;51.626;7.516;2023-02-01T03:02:54;7.30;99.90
4530;DHT22;2277;51.626;7.516;2023-02-01T03:05:43;7.30;99.90
4530;DHT22;2277;51.626;7.516;2023-02-01T03:08:17;7.30;99.90
4530;DHT22;2277;51.626;7.516;2023-02-01T03:11:00;7.30;99.90
4530;DHT22;2277;51.626;7.516;2023-02-01T03:21:10;7.20;99.90
4530;DHT22;2277;51.626;7.516;2023-02-01T03:23:37;7.20;99.90
4530;DHT22;2277;51.626;7.516;2023-02-01T03:26:07;7.20;99.90
4530;DHT22;2277;51.626;7.516;2023-02-01T03:28:36;7.20;99.90
4530;DHT22;2277;51.626;7.516;2023-02-01T03:31:03;7.20;99.90
4530;DHT22;2277;51.626;7.516;2023-02-01T03:33:30;7.20;99.90
4530;DHT22;2277;51.626;7.516;2023-02-01T03:36:09;7.20;99.90
4530;DHT22;2277;51.626;7.516;2023-02-01T03:38:50;7.20;99.90
4530;DHT22;2277;51.626;7.516;2023-02-01T03:41:35;7.20;99.90
4530;DHT22;2277;51.626;7.516;2023-02-01T03:44:21;7.20;99.90
4530;DHT22;2277;51.626;7.516;2023-02-01T03:47:34;7.20;99.90
4530;DHT22;2277;51.626;7.516;2023-02-01T03:49:44;7.20;99.90
4530;DHT22;2277;51.626;7.516;2023-02-01T03:52:15;7.20;99.90
4530;DHT22;2277;51.626;7.516;2023-02-01T03:54:42;7.20;99.90
4530;DHT22;2277;51.626;7.516;2023-02-01T03:57:12;7.20;99.90
4530;DHT22;2277;51.626;7.516;2023-02-01T03:59:43;7.20;99.90
4530;DHT22;2277;51.626;7.516;2023-02-01T04:02:10;7.20;99.90
4530;DHT22;2277;51.626;7.516;2023-02-01T04:04:36;7.30;99.90
4530;DHT22;2277;51.626;7.516;2023-02-01T04:07:01;7.20;99.90
4530;DHT22;2277;51.626;7.516;2023-02-01T04:09:27;7.10;99.90
4530;DHT22;2277;51.626;7.516;2023-02-01T04:11:52;7.10;99.90
4530;DHT22;2277;51.626;7.516;2023-02-01T04:14:18;7.10;99.90
4530;DHT22;2277;51.626;7.516;2023-02-01T04:16:44;7.20;99.90
4530;DHT22;2277;51.626;7.516;2023-02-01T04:19:09;7.20;99.90
4530;DHT22;2277;51.626;7.516;2023-02-01T04:21:35;7.20;99.90
4530;DHT22;2277;51.626;7.516;2023-02-01T04:24:01;7.20;99.90
4530;DHT22;2277;51.626;7.516;2023-02-01T04:26:26;7.20;99.90
4530;DHT22;2277;51.626;7.516;2023-02-01T04:28:52;7.30;99.90
4530;DHT22;2277;51.626;7.516;2023-02-01T04:31:18;7.30;99.90
4530;DHT22;2277;51.626;7.516;2023-02-01T04:33:51;7.30;99.90
4530;DHT22;2277;51.626;7.516;2023-02-01T04:36:18;7.30;99.90
4530;DHT22;2277;51.626;7.516;2023-02-01T04:38:46;7.20;99.90
4530;DHT22;2277;51.626;7.516;2023-02-01T04:41:12;7.20;99.90
4530;DHT22;2277;51.626;7.516;2023-02-01T04:43:38;7.20;99.90
4530;DHT22;2277;51.626;7.516;2023-02-01T04:46:03;7.20;99.90
4530;DHT22;2277;51.626;7.516;2023-02-01T04:48:30;7.10;99.90
4530;DHT22;2277;51.626;7.516;2023-02-01T04:50:56;7.20;99.90
4530;DHT22;2277;51.626;7.516;2023-02-01T04:53:21;7.20;99.90
4530;DHT22;2277;51.626;7.516;2023-02-01T04:55:48;7.10;99.90
4530;DHT22;2277;51.626;7.516;2023-02-01T04:58:14;7.20;99.90
4530;DHT22;2277;51.626;7.516;2023-02-01T05:00:40;7.10;99.90
4530;DHT22;2277;51.626;7.516;2023-02-01T05:03:05;7.20;99.90
4530;DHT22;2277;51.626;7.516;2023-02-01T05:05:31;7.10;99.90
4530;DHT22;2277;51.626;7.516;2023-02-01T05:07:57;7.10;99.90
4530;DHT22;2277;51.626;7.516;2023-02-01T05:10:22;7.10;99.90
4530;DHT22;2277;51.626;7.516;2023-02-01T05:12:48;7.10;99.90
4530;DHT22;2277;51.626;7.516;2023-02-01T05:15:32;7.20;99.90
4530;DHT22;2277;51.626;7.516;2023-02-01T05:17:57;7.10;99.90
4530;DHT22;2277;51.626;7.516;2023-02-01T05:20:24;7.10;99.90
4530;DHT22;2277;51.626;7.516;2023-02-01T05:22:50;7.10;99.90
4530;DHT22;2277;51.626;7.516;2023-02-01T05:25:16;7.10;99.90
4530;DHT22;2277;51.626;7.516;2023-02-01T05:27:42;7.10;99.90
4530;DHT22;2277;51.626;7.516;2023-02-01T05:30:09;7.10;99.90
4530;DHT22;2277;51.626;7.516;2023-02-01T05:32:34;7.10;99.90
4530;DHT22;2277;51.626;7.516;2023-02-01T05:35:00;7.10;99.90
4530;DHT22;2277;51.626;7.516;2023-02-01T05:37:26;7.00;99.90
4530;DHT22;2277;51.626;7.516;2023-02-01T05:39:52;7.00;99.90
4530;DHT22;2277;51.626;7.516;2023-02-01T05:42:17;7.00;99.90
4530;DHT22;2277;51.626;7.516;2023-02-01T05:44:43;7.10;99.90
4530;DHT22;2277;51.626;7.516;2023-02-01T05:47:09;7.10;99.90
4530;DHT22;2277;51.626;7.516;2023-02-01T05:49:34;7.20;99.90
4530;DHT22;2277;51.626;7.516;2023-02-01T05:52:00;7.10;99.90
4530;DHT22;2277;51.626;7.516;2023-02-01T05:54:26;7.10;99.90
4530;DHT22;2277;51.626;7.516;2023-02-01T05:56:51;7.20;99.90
4530;DHT22;2277;51.626;7.516;2023-02-01T05:59:17;7.20;99.90
4530;DHT22;2277;51.626;7.516;2023-02-01T06:01:42;7.20;99.90
4530;DHT22;2277;51.626;7.516;2023-02-01T06:04:08;7.10;99.90
4530;DHT22;2277;51.626;7.516;2023-02-01T06:06:34;7.10;99.90
4530;DHT22;2277;51.626;7.516;2023-02-01T06:09:00;7.00;99.90
4530;DHT22;2277;51.626;7.516;2023-02-01T06:11:26;7.10;99.90
4530;DHT22;2277;51.626;7.516;2023-02-01T06:13:51;7.10;99.90
4530;DHT22;2277;51.626;7.516;2023-02-01T06:16:17;7.10;99.90
4530;DHT22;2277;51.626;7.516;2023-02-01T06:18:43;7.00;99.90
4530;DHT22;2277;51.626;7.516;2023-02-01T06:21:08;7.10;99.90
4530;DHT22;2277;51.626;7.516;2023-02-01T06:23:34;7.10;99.90
4530;DHT22;2277;51.626;7.516;2023-02-01T06:26:04;7.00;99.90
4530;DHT22;2277;51.626;7.516;2023-02-01T06:28:31;7.10;99.90
4530;DHT22;2277;51.626;7.516;2023-02-01T06:30:57;7.10;99.90
4530;DHT22;2277;51.626;7.516;2023-02-01T06:33:24;7.10;99.90
4530;DHT22;2277;51.626;7.516;2023-02-01T06:35:57;7.10;99.90
4530;DHT22;2277;51.626;7.516;2023-02-01T06:38:23;7.10;99.90
4530;DHT22;2277;51.626;7.516;2023-02-01T06:40:53;7.00;99.90
4530;DHT22;2277;51.626;7.516;2023-02-01T06:43:19;7.00;99.90
4530;DHT22;2277;51.626;7.516;2023-02-01T06:45:44;6.90;99.90
4530;DHT22;2277;51.626;7.516;2023-02-01T06:48:10;6.90;99.90
4530;DHT22;2277;51.626;7.516;2023-02-01T06:50:35;6.90;99.90
4530;DHT22;2277;51.626;7.516;2023-02-01T06:53:01;6.90;99.90
4530;DHT22;2277;51.626;7.516;2023-02-01T06:55:27;6.90;99.90
4530;DHT22;2277;51.626;7.516;2023-02-01T06:57:53;6.90;99.90
4530;DHT22;2277;51.626;7.516;2023-02-01T07:00:20;6.90;99.90
4530;DHT22;2277;51.626;7.516;2023-02-01T07:02:46;6.90;99.90
4530;DHT22;2277;51.626;7.516;2023-02-01T07:05:11;6.80;99.90
4530;DHT22;2277;51.626;7.516;2023-02-01T07:07:37;6.80;99.90
4530;DHT22;2277;51.626;7.516;2023-02-01T07:10:02;6.80;99.90
4530;DHT22;2277;51.626;7.516;2023-02-01T07:12:28;6.90;99.90
4530;DHT22;2277;51.626;7.516;2023-02-01T07:14:54;6.90;99.90
4530;DHT22;2277;51.626;7.516;2023-02-01T07:17:19;6.90;99.90
4530;DHT22;2277;51.626;7.516;2023-02-01T07:19:45;6.90;99.90
4530;DHT22;2277;51.626;7.516;2023-02-01T07:22:10;6.80;99.90
4530;DHT22;2277;51.626;7.516;2023-02-01T07:24:36;6.90;99.90
4530;DHT22;2277;51.626;7.516;2023-02-01T07:27:02;7.00;99.90
4530;DHT22;2277;51.626;7.516;2023-02-01T07:29:27;7.00;99.90
4530;DHT22;2277;51.626;7.516;2023-02-01T07:31:53;7.00;99.90
4530;DHT22;2277;51.626;7.516;2023-02-01T07:34:18;7.00;99.90
4530;DHT22;2277;51.626;7.516;2023-02-01T07:36:44;7.00;99.90
4530;DHT22;2277;51.626;7.516;2023-02-01T07:39:09;7.00;99.90
4530;DHT22;2277;51.626;7.516;2023-02-01T07:41:35;7.00;99.90
4530;DHT22;2277;51.626;7.516;2023-02-01T07:44:00;7.00;99.90
4530;DHT22;2277;51.626;7.516;2023-02-01T07:46:26;7.00;99.90
4530;DHT22;2277;51.626;7.516;2023-02-01T07:48:52;7.00;99.90
4530;DHT22;2277;51.626;7.516;2023-02-01T07:51:17;7.10;99.90
4530;DHT22;2277;51.626;7.516;2023-02-01T07:53:44;7.10;99.90
4530;DHT22;2277;51.626;7.516;2023-02-01T07:56:15;7.10;99.90
4530;DHT22;2277;51.626;7.516;2023-02-01T07:58:41;7.10;99.90
4530;DHT22;2277;51.626;7.516;2023-02-01T08:01:15;7.10;99.90
4530;DHT22;2277;51.626;7.516;2023-02-01T08:04:01;7.10;99.90
4530;DHT22;2277;51.626;7.516;2023-02-01T08:06:29;7.10;99.90
4530;DHT22;2277;51.626;7.516;2023-02-01T08:08:56;7.10;99.90
4530;DHT22;2277;51.626;7.516;2023-02-01T08:11:23;7.20;99.90
4530;DHT22;2277;51.626;7.516;2023-02-01T08:13:49;7.20;99.90
4530;DHT22;2277;51.626;7.516;2023-02-01T08:16:16;7.10;99.90
4530;DHT22;2277;51.626;7.516;2023-02-01T08:18:42;7.10;99.90
4530;DHT22;2277;51.626;7.516;2023-02-01T08:21:11;7.10;99.90
4530;DHT22;2277;51.626;7.516;2023-02-01T08:23:37;7.10;99.90
4530;DHT22;2277;51.626;7.516;2023-02-01T08:28:33;7.10;99.90
4530;DHT22;2277;51.626;7.516;2023-02-01T08:31:03;7.20;99.90
4530;DHT22;2277;51.626;7.516;2023-02-01T08:33:28;7.20;99.90
4530;DHT22;2277;51.626;7.516;2023-02-01T08:35:54;7.20;99.90
4530;DHT22;2277;51.626;7.516;2023-02-01T08:38:19;7.20;99.90
4530;DHT22;2277;51.626;7.516;2023-02-01T08:40:45;7.30;99.90
4530;DHT22;2277;51.626;7.516;2023-02-01T08:43:11;7.30;99.90
4530;DHT22;2277;51.626;7.516;2023-02-01T08:45:37;7.30;99.90
4530;DHT22;2277;51.626;7.516;2023-02-01T08:48:03;7.20;99.90
4530;DHT22;2277;51.626;7.516;2023-02-01T08:50:28;7.20;99.90
4530;DHT22;2277;51.626;7.516;2023-02-01T08:52:54;7.30;99.90
4530;DHT22;2277;51.626;7.516;2023-02-01T08:55:20;7.20;99.90
4530;DHT22;2277;51.626;7.516;2023-02-01T08:57:45;7.30;99.90
4530;DHT22;2277;51.626;7.516;2023-02-01T09:00:14;7.40;99.90
4530;DHT22;2277;51.626;7.516;2023-02-01T09:02:41;7.40;99.90
4530;DHT22;2277;51.626;7.516;2023-02-01T09:05:07;7.40;99.90
4530;DHT22;2277;51.626;7.516;2023-02-01T09:07:33;7.40;99.90
4530;DHT22;2277;51.626;7.516;2023-02-01T09:09:59;7.30;99.90
4530;DHT22;2277;51.626;7.516;2023-02-01T09:12:29;7.30;99.90
4530;DHT22;2277;51.626;7.516;2023-02-01T09:14:57;7.30;99.90
4530;DHT22;2277;51.626;7.516;2023-02-01T09:17:25;7.40;99.90
4530;DHT22;2277;51.626;7.516;2023-02-01T09:19:51;7.30;99.90
4530;DHT22;2277;51.626;7.516;2023-02-01T09:22:16;7.30;99.90
4530;DHT22;2277;51.626;7.516;2023-02-01T09:24:42;7.30;99.90
4530;DHT22;2277;51.626;7.516;2023-02-01T09:27:08;7.30;99.90
4530;DHT22;2277;51.626;7.516;2023-02-01T09:29:33;7.40;99.90
4530;DHT22;2277;51.626;7.516;2023-02-01T09:31:59;7.40;99.90
4530;DHT22;2277;51.626;7.516;2023-02-01T09:34:24;7.40;99.90
4530;DHT22;2277;51.626;7.516;2023-02-01T09:36:50;7.50;99.90
4530;DHT22;2277;51.626;7.516;2023-02-01T09:39:16;7.50;99.90
4530;DHT22;2277;51.626;7.516;2023-02-01T09:44:53;7.50;99.90
4530;DHT22;2277;51.626;7.516;2023-02-01T09:47:24;7.50;99.90
4530;DHT22;2277;51.626;7.516;2023-02-01T09:52:42;7.60;99.90
4530;DHT22;2277;51.626;7.516;2023-02-01T09:55:19;7.70;99.90
4530;DHT22;2277;51.626;7.516;2023-02-01T09:58:01;7.60;99.90
4530;DHT22;2277;51.626;7.516;2023-02-01T10:00:37;7.60;99.90
4530;DHT22;2277;51.626;7.516;2023-02-01T10:03:04;7.60;99.90
4530;DHT22;2277;51.626;7.516;2023-02-01T10:06:05;7.50;99.90
4530;DHT22;2277;51.626;7.516;2023-02-01T10:14:19;7.60;99.90
4530;DHT22;2277;51.626;7.516;2023-02-01T10:16:50;7.70;99.90
4530;DHT22;2277;51.626;7.516;2023-02-01T10:22:10;7.70;99.90
4530;DHT22;2277;51.626;7.516;2023-02-01T10:24:50;7.80;99.90
4530;DHT22;2277;51.626;7.516;2023-02-01T10:27:38;7.70;99.90
4530;DHT22;2277;51.626;7.516;2023-02-01T10:32:43;7.80;99.90
4530;DHT22;2277;51.626;7.516;2023-02-01T10:35:21;7.80;99.90
4530;DHT22;2277;51.626;7.516;2023-02-01T10:37:49;7.80;99.90
4530;DHT22;2277;51.626;7.516;2023-02-01T10:40:24;7.80;99.90
4530;DHT22;2277;51.626;7.516;2023-02-01T10:42:56;7.80;99.90
4530;DHT22;2277;51.626;7.516;2023-02-01T10:45:26;7.90;99.90
4530;DHT22;2277;51.626;7.516;2023-02-01T10:47:54;7.80;99.90
4530;DHT22;2277;51.626;7.516;2023-02-01T10:50:33;7.80;99.90
4530;DHT22;2277;51.626;7.516;2023-02-01T10:53:10;7.80;99.90
4530;DHT22;2277;51.626;7.516;2023-02-01T10:55:49;7.80;99.90
4530;DHT22;2277;51.626;7.516;2023-02-01T11:00:46;7.80;99.90
4530;DHT22;2277;51.626;7.516;2023-02-01T11:06:01;7.90;99.90
4530;DHT22;2277;51.626;7.516;2023-02-01T11:08:27;7.90;99.90
4530;DHT22;2277;51.626;7.516;2023-02-01T11:10:58;8.00;99.90
4530;DHT22;2277;51.626;7.516;2023-02-01T11:13:30;7.90;99.90
4530;DHT22;2277;51.626;7.516;2023-02-01T11:15:56;7.90;99.90
4530;DHT22;2277;51.626;7.516;2023-02-01T11:18:27;7.90;99.90
4530;DHT22;2277;51.626;7.516;2023-02-01T11:20:53;7.90;99.90
4530;DHT22;2277;51.626;7.516;2023-02-01T11:23:24;8.00;99.90
4530;DHT22;2277;51.626;7.516;2023-02-01T11:25:59;7.90;99.90
4530;DHT22;2277;51.626;7.516;2023-02-01T11:28:29;8.00;99.90
4530;DHT22;2277;51.626;7.516;2023-02-01T11:31:08;8.00;99.90
4530;DHT22;2277;51.626;7.516;2023-02-01T11:33:37;8.00;99.90
4530;DHT22;2277;51.626;7.516;2023-02-01T11:36:16;8.00;99.90
4530;DHT22;2277;51.626;7.516;2023-02-01T11:38:51;8.00;99.90
4530;DHT22;2277;51.626;7.516;2023-02-01T11:43:52;8.00;99.90
4530;DHT22;2277;51.626;7.516;2023-02-01T11:46:21;8.10;99.90
4530;DHT22;2277;51.626;7.516;2023-02-01T11:48:51;8.10;99.90
4530;DHT22;2277;51.626;7.516;2023-02-01T11:54:35;8.10;99.90
4530;DHT22;2277;51.626;7.516;2023-02-01T11:57:25;8.20;99.90
4530;DHT22;2277;51.626;7.516;2023-02-01T12:02:32;8.30;99.90
4530;DHT22;2277;51.626;7.516;2023-02-01T12:08:05;8.40;99.90
4530;DHT22;2277;51.626;7.516;2023-02-01T12:16:45;8.20;99.90
4530;DHT22;2277;51.626;7.516;2023-02-01T12:19:17;8.00;99.90
4530;DHT22;2277;51.626;7.516;2023-02-01T12:36:09;7.70;99.90
4530;DHT22;2277;51.626;7.516;2023-02-01T12:44:11;7.60;99.90
4530;DHT22;2277;51.626;7.516;2023-02-01T12:46:45;7.60;99.90
4530;DHT22;2277;51.626;7.516;2023-02-01T12:49:35;7.60;99.90
4530;DHT22;2277;51.626;7.516;2023-02-01T12:52:09;7.60;99.90
4530;DHT22;2277;51.626;7.516;2023-02-01T12:54:58;7.70;99.90
4530;DHT22;2277;51.626;7.516;2023-02-01T12:57:33;7.70;99.90
4530;DHT22;2277;51.626;7.516;2023-02-01T13:00:07;7.70;99.90
4530;DHT22;2277;51.626;7.516;2023-02-01T13:02:52;7.80;99.90
4530;DHT22;2277;51.626;7.516;2023-02-01T13:05:22;7.80;99.90
4530;DHT22;2277;51.626;7.516;2023-02-01T13:07:57;7.80;99.90
4530;DHT22;2277;51.626;7.516;2023-02-01T13:13:20;7.70;99.90
4530;DHT22;2277;51.626;7.516;2023-02-01T13:16:04;7.70;99.90
4530;DHT22;2277;51.626;7.516;2023-02-01T13:18:35;7.70;99.90
4530;DHT22;2277;51.626;7.516;2023-02-01T13:21:14;7.80;99.90
4530;DHT22;2277;51.626;7.516;2023-02-01T13:23:45;7.70;99.90
4530;DHT22;2277;51.626;7.516;2023-02-01T13:26:11;7.70;99.90
4530;DHT22;2277;51.626;7.516;2023-02-01T13:43:06;7.90;99.90
4530;DHT22;2277;51.626;7.516;2023-02-01T13:45:35;7.90;99.90
4530;DHT22;2277;51.626;7.516;2023-02-01T13:48:04;7.80;99.90
4530;DHT22;2277;51.626;7.516;2023-02-01T13:50:33;7.90;99.90
4530;DHT22;2277;51.626;7.516;2023-02-01T13:55:41;7.90;99.90
4530;DHT22;2277;51.626;7.516;2023-02-01T14:00:41;8.00;99.90
4530;DHT22;2277;51.626;7.516;2023-02-01T14:03:17;8.00;99.90
4530;DHT22;2277;51.626;7.516;2023-02-01T14:08:12;8.00;99.90
4530;DHT22;2277;51.626;7.516;2023-02-01T14:10:55;8.00;99.90
4530;DHT22;2277;51.626;7.516;2023-02-01T14:13:38;8.10;99.90
4530;DHT22;2277;51.626;7.516;2023-02-01T14:23:54;8.20;99.90
4530;DHT22;2277;51.626;7.516;2023-02-01T14:26:25;8.20;99.90
4530;DHT22;2277;51.626;7.516;2023-02-01T14:44:47;8.10;99.90
4530;DHT22;2277;51.626;7.516;2023-02-01T14:47:27;8.00;99.90
4530;DHT22;2277;51.626;7.516;2023-02-01T14:50:41;8.10;99.90
4530;DHT22;2277;51.626;7.516;2023-02-01T14:52:58;8.10;99.90
4530;DHT22;2277;51.626;7.516;2023-02-01T14:57:57;8.10;99.90
4530;DHT22;2277;51.626;7.516;2023-02-01T15:00:27;8.10;99.90
4530;DHT22;2277;51.626;7.516;2023-02-01T15:03:13;8.10;99.90
4530;DHT22;2277;51.626;7.516;2023-02-01T15:05:40;8.10;99.90
4530;DHT22;2277;51.626;7.516;2023-02-01T15:08:15;8.10;99.90
4530;DHT22;2277;51.626;7.516;2023-02-01T15:10:45;8.10;99.90
4530;DHT22;2277;51.626;7.516;2023-02-01T15:13:23;8.20;99.90
4530;DHT22;2277;51.626;7.516;2023-02-01T15:16:04;8.20;99.90
4530;DHT22;2277;51.626;7.516;2023-02-01T15:18:30;8.10;99.90
4530;DHT22;2277;51.626;7.516;2023-02-01T15:20:58;8.10;99.90
4530;DHT22;2277;51.626;7.516;2023-02-01T15:23:24;8.10;99.90
4530;DHT22;2277;51.626;7.516;2023-02-01T15:25:50;8.10;99.90
4530;DHT22;2277;51.626;7.516;2023-02-01T15:28:16;8.20;99.90
4530;DHT22;2277;51.626;7.516;2023-02-01T15:31:11;8.10;99.90
4530;DHT22;2277;51.626;7.516;2023-02-01T15:33:37;8.20;99.90
4530;DHT22;2277;51.626;7.516;2023-02-01T15:38:32;8.20;99.90
4530;DHT22;2277;51.626;7.516;2023-02-01T15:43:32;8.30;99.90
4530;DHT22;2277;51.626;7.516;2023-02-01T15:46:00;8.20;99.90
4530;DHT22;2277;51.626;7.516;2023-02-01T15:48:38;8.20;99.90
4530;DHT22;2277;51.626;7.516;2023-02-01T15:51:06;8.20;99.90
4530;DHT22;2277;51.626;7.516;2023-02-01T15:53:36;8.20;99.90
4530;DHT22;2277;51.626;7.516;2023-02-01T15:56:03;8.20;99.90
4530;DHT22;2277;51.626;7.516;2023-02-01T15:58:30;8.20;99.90
4530;DHT22;2277;51.626;7.516;2023-02-01T16:01:00;8.30;99.90
4530;DHT22;2277;51.626;7.516;2023-02-01T16:03:38;8.30;99.90
4530;DHT22;2277;51.626;7.516;2023-02-01T16:08:36;8.20;99.90
4530;DHT22;2277;51.626;7.516;2023-02-01T16:13:34;8.20;99.90
4530;DHT22;2277;51.626;7.516;2023-02-01T16:16:00;8.20;99.90
4530;DHT22;2277;51.626;7.516;2023-02-01T16:18:25;8.20;99.90
4530;DHT22;2277;51.626;7.516;2023-02-01T16:20:51;8.10;99.90
4530;DHT22;2277;51.626;7.516;2023-02-01T16:23:16;8.10;99.90
4530;DHT22;2277;51.626;7.516;2023-02-01T16:25:42;8.10;99.90
4530;DHT22;2277;51.626;7.516;2023-02-01T16:28:08;8.10;99.90
4530;DHT22;2277;51.626;7.516;2023-02-01T16:30:34;8.10;99.90
4530;DHT22;2277;51.626;7.516;2023-02-01T16:33:01;8.10;99.90
4530;DHT22;2277;51.626;7.516;2023-02-01T16:35:35;8.10;99.90
4530;DHT22;2277;51.626;7.516;2023-02-01T16:38:07;8.20;99.90
4530;DHT22;2277;51.626;7.516;2023-02-01T16:40:41;8.10;99.90
4530;DHT22;2277;51.626;7.516;2023-02-01T16:43:13;8.20;99.90
4530;DHT22;2277;51.626;7.516;2023-02-01T16:45:40;8.20;99.90
4530;DHT22;2277;51.626;7.516;2023-02-01T16:48:07;8.10;99.90
4530;DHT22;2277;51.626;7.516;2023-02-01T16:50:33;8.00;99.90
4530;DHT22;2277;51.626;7.516;2023-02-01T16:53:00;7.90;99.90
4530;DHT22;2277;51.626;7.516;2023-02-01T16:55:26;7.80;99.90
4530;DHT22;2277;51.626;7.516;2023-02-01T16:57:53;7.80;99.90
4530;DHT22;2277;51.626;7.516;2023-02-01T17:00:19;7.70;99.90
4530;DHT22;2277;51.626;7.516;2023-02-01T17:02:45;7.60;99.90
4530;DHT22;2277;51.626;7.516;2023-02-01T17:05:11;7.60;99.90
4530;DHT22;2277;51.626;7.516;2023-02-01T17:07:38;7.60;99.90
4530;DHT22;2277;51.626;7.516;2023-02-01T17:10:05;7.40;99.90
4530;DHT22;2277;51.626;7.516;2023-02-01T17:12:32;7.40;99.90
4530;DHT22;2277;51.626;7.516;2023-02-01T17:14:59;7.30;99.90
4530;DHT22;2277;51.626;7.516;2023-02-01T17:17:34;7.30;99.90
4530;DHT22;2277;51.626;7.516;2023-02-01T17:20:01;7.30;99.90
4530;DHT22;2277;51.626;7.516;2023-02-01T17:22:26;7.30;99.90
4530;DHT22;2277;51.626;7.516;2023-02-01T17:24:52;7.20;99.90
4530;DHT22;2277;51.626;7.516;2023-02-01T17:27:18;7.20;99.90
4530;DHT22;2277;51.626;7.516;2023-02-01T17:29:44;7.30;99.90
4530;DHT22;2277;51.626;7.516;2023-02-01T17:32:19;7.20;99.90
4530;DHT22;2277;51.626;7.516;2023-02-01T17:34:45;7.20;99.90
4530;DHT22;2277;51.626;7.516;2023-02-01T17:37:29;7.20;99.90
4530;DHT22;2277;51.626;7.516;2023-02-01T17:39:55;7.20;99.90
4530;DHT22;2277;51.626;7.516;2023-02-01T17:42:21;7.20;99.90
4530;DHT22;2277;51.626;7.516;2023-02-01T17:44:47;7.20;99.90
4530;DHT22;2277;51.626;7.516;2023-02-01T17:47:13;7.20;99.90
4530;DHT22;2277;51.626;7.516;2023-02-01T17:49:39;7.20;99.90
4530;DHT22;2277;51.626;7.516;2023-02-01T17:52:05;7.20;99.90
4530;DHT22;2277;51.626;7.516;2023-02-01T17:54:31;7.20;99.90
4530;DHT22;2277;51.626;7.516;2023-02-01T17:56:56;7.10;99.90
4530;DHT22;2277;51.626;7.516;2023-02-01T17:59:27;7.10;99.90
4530;DHT22;2277;51.626;7.516;2023-02-01T18:01:53;7.00;99.90
4530;DHT22;2277;51.626;7.516;2023-02-01T18:04:25;6.90;99.90
4530;DHT22;2277;51.626;7.516;2023-02-01T18:06:50;6.90;99.90
4530;DHT22;2277;51.626;7.516;2023-02-01T18:09:16;6.90;99.90
4530;DHT22;2277;51.626;7.516;2023-02-01T18:11:42;7.00;99.90
4530;DHT22;2277;51.626;7.516;2023-02-01T18:14:11;7.00;99.90
4530;DHT22;2277;51.626;7.516;2023-02-01T18:16:40;7.00;99.90
4530;DHT22;2277;51.626;7.516;2023-02-01T18:19:07;7.00;99.90
4530;DHT22;2277;51.626;7.516;2023-02-01T18:21:35;7.00;99.90
4530;DHT22;2277;51.626;7.516;2023-02-01T18:24:01;6.90;99.90
4530;DHT22;2277;51.626;7.516;2023-02-01T18:26:27;6.90;99.90
4530;DHT22;2277;51.626;7.516;2023-02-01T18:28:53;6.80;99.90
4530;DHT22;2277;51.626;7.516;2023-02-01T18:31:26;6.80;99.90
4530;DHT22;2277;51.626;7.516;2023-02-01T18:33:55;6.70;99.90
4530;DHT22;2277;51.626;7.516;2023-02-01T18:36:21;6.60;99.90
4530;DHT22;2277;51.626;7.516;2023-02-01T18:38:46;6.70;99.90
4530;DHT22;2277;51.626;7.516;2023-02-01T18:41:14;6.70;99.90
4530;DHT22;2277;51.626;7.516;2023-02-01T18:43:40;6.60;99.90
4530;DHT22;2277;51.626;7.516;2023-02-01T18:46:08;6.60;99.90
4530;DHT22;2277;51.626;7.516;2023-02-01T18:48:34;6.60;99.90
4530;DHT22;2277;51.626;7.516;2023-02-01T18:51:00;6.60;99.90
4530;DHT22;2277;51.626;7.516;2023-02-01T18:53:26;6.50;99.90
4530;DHT22;2277;51.626;7.516;2023-02-01T18:55:56;6.60;99.90